createdAt,value
2022-11-18T00:01:15.731Z,99041.41
2022-11-18T00:03:43.010Z,99041.75
2022-11-18T00:06:16.696Z,99042.94
2022-11-18T00:08:43.246Z,99038.84
2022-11-18T00:11:11.081Z,99035.78
2022-11-18T00:13:56.506Z,99048.91
2022-11-18T00:16:23.123Z,99033.44
2022-11-18T00:18:49.414Z,99031.28
2022-11-18T00:21:15.746Z,99017.97
2022-11-18T00:23:42.350Z,99025.50
2022-11-18T00:26:11.105Z,99027.97
2022-11-18T00:28:37.637Z,99035.25
2022-11-18T00:31:08.813Z,99025.56
2022-11-18T00:33:36.866Z,99031.56
2022-11-18T00:36:08.446Z,99031.56
2022-11-18T00:38:34.948Z,99046.56
2022-11-18T00:41:05.335Z,99049.50
2022-11-18T00:43:31.893Z,99047.00
2022-11-18T00:45:58.248Z,99052.84
2022-11-18T00:48:24.684Z,99049.13
2022-11-18T00:50:51.733Z,99055.34
2022-11-18T00:53:18.825Z,99059.94
2022-11-18T00:55:48.037Z,99051.38
2022-11-18T00:58:14.929Z,99058.25
2022-11-18T01:00:42.072Z,99057.59
2022-11-18T01:03:08.918Z,99064.28
2022-11-18T01:05:35.218Z,99071.94
2022-11-18T01:08:01.522Z,99072.59
2022-11-18T01:10:27.853Z,99068.25
2022-11-18T01:13:12.974Z,99083.81
2022-11-18T01:15:40.189Z,99075.91
2022-11-18T01:18:06.473Z,99073.00
2022-11-18T01:20:33.409Z,99071.50
2022-11-18T01:22:59.675Z,99077.56
2022-11-18T01:25:26.233Z,99075.22
2022-11-18T01:27:52.513Z,99080.41
2022-11-18T01:30:19.072Z,99078.97
2022-11-18T01:32:46.619Z,99092.44
2022-11-18T01:35:13.038Z,99090.53
2022-11-18T01:37:39.395Z,99089.72
2022-11-18T01:40:06.909Z,99090.53
2022-11-18T01:42:33.175Z,99092.88
2022-11-18T01:45:09.316Z,99094.53
2022-11-18T01:47:39.342Z,99098.50
2022-11-18T01:50:06.636Z,99103.06
2022-11-18T01:52:34.497Z,99104.94
2022-11-18T01:55:05.220Z,99093.09
2022-11-18T01:57:32.321Z,99094.31
2022-11-18T02:00:01.282Z,99095.50
2022-11-18T02:02:30.470Z,99101.97
2022-11-18T02:04:57.703Z,99112.78
2022-11-18T02:07:24.472Z,99104.66
2022-11-18T02:09:53.001Z,99113.44
2022-11-18T02:12:19.744Z,99111.94
2022-11-18T02:14:46.659Z,99114.28
2022-11-18T02:17:51.562Z,99118.00
2022-11-18T02:20:31.206Z,99127.16
2022-11-18T02:23:06.466Z,99123.41
2022-11-18T02:25:44.729Z,99117.56
2022-11-18T02:28:13.903Z,99122.28
2022-11-18T02:30:52.381Z,99130.63
2022-11-18T02:33:30.543Z,99135.81
2022-11-18T02:35:59.653Z,99135.47
2022-11-18T02:38:35.442Z,99140.06
2022-11-18T02:41:14.696Z,99143.66
2022-11-18T02:43:46.306Z,99150.94
2022-11-18T02:46:15.652Z,99149.28
2022-11-18T02:48:45.965Z,99147.25
2022-11-18T02:51:14.082Z,99149.94
2022-11-18T02:53:41.233Z,99147.47
2022-11-18T02:56:09.270Z,99152.66
2022-11-18T02:58:35.583Z,99150.53
2022-11-18T03:01:02.171Z,99146.03
2022-11-18T03:03:30.377Z,99155.16
2022-11-18T03:06:04.245Z,99155.34
2022-11-18T03:08:35.178Z,99157.59
2022-11-18T03:11:12.915Z,99158.81
2022-11-18T03:13:45.345Z,99165.28
2022-11-18T03:16:16.937Z,99161.97
2022-11-18T03:18:54.921Z,99166.75
2022-11-18T03:21:24.610Z,99165.09
2022-11-18T03:24:03.359Z,99167.78
2022-11-18T03:26:35.737Z,99163.66
2022-11-18T03:29:04.933Z,99167.34
2022-11-18T03:31:42.049Z,99173.38
2022-11-18T03:34:14.825Z,99178.78
2022-11-18T03:36:44.078Z,99173.38
2022-11-18T03:39:12.725Z,99187.47
2022-11-18T03:41:42.531Z,99190.38
2022-11-18T03:44:14.307Z,99196.84
2022-11-18T03:46:46.301Z,99198.28
2022-11-18T03:49:20.099Z,99206.59
2022-11-18T03:51:50.531Z,99211.41
2022-11-18T03:54:20.570Z,99210.97
2022-11-18T03:56:51.338Z,99223.63
2022-11-18T03:59:21.024Z,99218.25
2022-11-18T04:01:50.556Z,99222.00
2022-11-18T04:04:16.978Z,99221.44
2022-11-18T04:06:46.991Z,99224.34
2022-11-18T04:09:30.040Z,99224.59
2022-11-18T04:12:02.878Z,99230.63
2022-11-18T04:14:30.857Z,99228.38
2022-11-18T04:16:57.234Z,99232.28
2022-11-18T04:19:23.846Z,99231.84
2022-11-18T04:21:50.884Z,99235.81
2022-11-18T04:24:17.192Z,99236.19
2022-11-18T04:26:43.518Z,99248.03
2022-11-18T04:29:09.846Z,99248.66
2022-11-18T04:31:36.114Z,99250.31
2022-11-18T04:34:02.455Z,99254.66
2022-11-18T04:36:28.733Z,99253.63
2022-11-18T04:38:55.017Z,99259.03
2022-11-18T04:41:41.269Z,99265.72
2022-11-18T04:44:12.876Z,99260.16
2022-11-18T04:46:40.770Z,99265.72
2022-11-18T04:49:07.801Z,99267.66
2022-11-18T04:51:34.101Z,99265.38
2022-11-18T04:54:00.418Z,99270.78
2022-11-18T04:56:26.856Z,99272.50
2022-11-18T04:58:53.181Z,99280.81
2022-11-18T05:01:19.557Z,99281.81
2022-11-18T05:03:50.379Z,99284.09
2022-11-18T05:06:17.034Z,99276.00
2022-11-18T05:08:43.442Z,99284.09
2022-11-18T05:11:28.300Z,99282.44
2022-11-18T05:13:54.578Z,99283.72
2022-11-18T05:16:20.922Z,99283.28
2022-11-18T05:18:47.607Z,99284.53
2022-11-18T05:21:13.885Z,99286.19
2022-11-18T05:23:40.202Z,99285.56
2022-11-18T05:26:07.289Z,99296.38
2022-11-18T05:28:33.729Z,99298.84
2022-11-18T05:31:00.142Z,99300.72
2022-11-18T05:33:26.433Z,99303.22
2022-11-18T05:35:55.227Z,99297.38
2022-11-18T05:38:21.746Z,99309.88
2022-11-18T05:40:48.065Z,99317.41
2022-11-18T05:43:14.435Z,99313.25
2022-11-18T05:45:41.258Z,99317.44
2022-11-18T05:48:07.823Z,99313.69
2022-11-18T05:50:35.430Z,99321.78
2022-11-18T05:53:02.473Z,99329.09
2022-11-18T05:55:31.665Z,99323.06
2022-11-18T05:57:57.951Z,99325.34
2022-11-18T06:00:24.233Z,99322.22
2022-11-18T06:02:52.753Z,99326.13
2022-11-18T06:05:23.361Z,99321.59
2022-11-18T06:07:50.598Z,99332.00
2022-11-18T06:10:18.910Z,99335.75
2022-11-18T06:12:46.727Z,99337.41
2022-11-18T06:15:16.789Z,99347.34
2022-11-18T06:17:49.562Z,99347.75
2022-11-18T06:20:22.462Z,99352.31
2022-11-18T06:22:51.094Z,99355.66
2022-11-18T06:25:17.643Z,99361.22
2022-11-18T06:27:44.173Z,99363.31
2022-11-18T06:30:10.731Z,99375.94
2022-11-18T06:32:37.106Z,99371.59
2022-11-18T06:35:03.494Z,99375.94
2022-11-18T06:37:29.798Z,99380.91
2022-11-18T06:39:56.186Z,99380.06
2022-11-18T06:42:41.203Z,99383.38
2022-11-18T06:45:07.804Z,99385.88
2022-11-18T06:47:34.119Z,99387.94
2022-11-18T06:50:00.401Z,99393.50
2022-11-18T06:52:27.453Z,99391.22
2022-11-18T06:54:53.795Z,99403.69
2022-11-18T06:57:20.140Z,99399.13
2022-11-18T06:59:46.434Z,99405.34
2022-11-18T07:02:12.734Z,99402.66
2022-11-18T07:04:40.882Z,99417.59
2022-11-18T07:07:07.604Z,99420.09
2022-11-18T07:09:34.973Z,99422.38
2022-11-18T07:12:01.401Z,99429.41
2022-11-18T07:14:27.821Z,99433.97
2022-11-18T07:16:54.133Z,99431.50
2022-11-18T07:19:20.482Z,99438.38
2022-11-18T07:21:46.871Z,99443.56
2022-11-18T07:24:14.406Z,99448.16
2022-11-18T07:26:40.955Z,99445.22
2022-11-18T07:29:07.378Z,99458.94
2022-11-18T07:31:35.199Z,99463.91
2022-11-18T07:34:01.510Z,99468.06
2022-11-18T07:36:35.604Z,99469.06
2022-11-18T07:39:03.291Z,99482.38
2022-11-18T07:41:30.202Z,99472.16
2022-11-18T07:44:00.511Z,99483.38
2022-11-18T07:46:28.857Z,99479.19
2022-11-18T07:48:57.176Z,99473.19
2022-11-18T07:51:24.841Z,99488.56
2022-11-18T07:53:51.450Z,99481.31
2022-11-18T07:56:18.438Z,99436.53
2022-11-18T07:58:45.097Z,99486.88
2022-11-18T08:01:12.865Z,99489.59
2022-11-18T08:03:39.557Z,99492.91
2022-11-18T08:06:06.918Z,99496.41
2022-11-18T08:08:33.693Z,99500.34
2022-11-18T08:11:01.190Z,99506.53
2022-11-18T08:13:27.832Z,99506.53
2022-11-18T08:15:54.242Z,99506.69
2022-11-18T08:18:20.746Z,99506.91
2022-11-18T08:20:47.350Z,99518.09
2022-11-18T08:23:14.166Z,99513.91
2022-11-18T08:25:41.060Z,99521.59
2022-11-18T08:28:07.499Z,99520.72
2022-11-18T08:30:34.605Z,99527.56
2022-11-18T08:33:00.889Z,99528.78
2022-11-18T08:35:27.593Z,99527.94
2022-11-18T08:37:54.004Z,99526.44
2022-11-18T08:40:20.565Z,99538.69
2022-11-18T08:42:46.932Z,99544.75
2022-11-18T08:45:13.332Z,99548.28
2022-11-18T08:47:39.673Z,99546.44
2022-11-18T08:50:07.411Z,99547.25
2022-11-18T08:52:35.667Z,99549.13
2022-11-18T08:55:02.115Z,99544.53
2022-11-18T08:57:28.388Z,99556.19
2022-11-18T08:59:54.689Z,99549.94
2022-11-18T09:02:22.072Z,99549.13
2022-11-18T09:04:49.153Z,99554.53
2022-11-18T09:07:15.586Z,99556.63
2022-11-18T09:09:42.081Z,99552.69
2022-11-18T09:12:09.190Z,99558.09
2022-11-18T09:17:22.386Z,99557.50
2022-11-18T09:19:48.731Z,99561.28
2022-11-18T09:22:15.115Z,99563.34
2022-11-18T09:24:41.570Z,99566.47
2022-11-18T09:27:13.721Z,99573.97
2022-11-18T09:29:43.113Z,99572.72
2022-11-18T09:32:09.495Z,99574.38
2022-11-18T09:34:36.167Z,99583.34
2022-11-18T09:37:06.474Z,99590.00
2022-11-18T09:39:36.963Z,99592.50
2022-11-18T09:42:06.351Z,99599.97
2022-11-18T09:44:44.634Z,99606.81
2022-11-18T09:47:30.623Z,99599.53
2022-11-18T09:49:59.098Z,99609.94
2022-11-18T09:52:35.959Z,99611.56
2022-11-18T09:55:04.443Z,99610.13
2022-11-18T09:57:50.929Z,99615.75
2022-11-18T10:00:20.435Z,99609.66
2022-11-18T10:03:05.105Z,99617.13
2022-11-18T10:05:33.427Z,99624.41
2022-11-18T10:08:04.487Z,99618.81
2022-11-18T10:10:38.389Z,99627.94
2022-11-18T10:13:11.070Z,99631.44
2022-11-18T10:15:47.871Z,99636.47
2022-11-18T10:18:58.399Z,99620.84
2022-11-18T10:21:18.926Z,99634.72
2022-11-18T10:23:59.305Z,99629.69
2022-11-18T10:26:46.843Z,99634.06
2022-11-18T10:29:16.480Z,99639.84
2022-11-18T10:32:04.641Z,99643.75
2022-11-18T10:34:31.957Z,99644.97
2022-11-18T10:37:03.734Z,99645.59
2022-11-18T10:39:30.306Z,99645.16
2022-11-18T10:42:04.609Z,99648.25
2022-11-18T10:44:32.393Z,99648.25
2022-11-18T10:47:17.290Z,99658.00
2022-11-18T10:49:43.766Z,99658.63
2022-11-18T10:52:11.457Z,99656.16
2022-11-18T10:54:37.762Z,99656.59
2022-11-18T10:57:07.151Z,99654.28
2022-11-18T10:59:40.071Z,99656.47
2022-11-18T11:02:15.655Z,99651.56
2022-11-18T11:04:42.785Z,99650.38
2022-11-18T11:07:27.775Z,99658.31
2022-11-18T11:10:02.223Z,99649.94
2022-11-18T11:12:33.467Z,99651.56
2022-11-18T11:15:01.926Z,99661.47
2022-11-18T11:17:31.457Z,99660.81
2022-11-18T11:20:13.736Z,99657.50
2022-11-18T11:22:40.050Z,99658.59
2022-11-18T11:25:12.876Z,99657.19
2022-11-18T11:30:37.819Z,99656.22
2022-11-18T11:33:17.140Z,99652.06
2022-11-18T11:35:51.318Z,99655.88
2022-11-18T11:38:29.125Z,99654.25
2022-11-18T11:41:02.342Z,99656.81
2022-11-18T11:43:34.592Z,99655.13
2022-11-18T11:46:19.549Z,99664.09
2022-11-18T11:49:04.655Z,99671.78
2022-11-18T11:51:35.611Z,99656.72
2022-11-18T11:54:07.936Z,99666.19
2022-11-18T11:56:46.391Z,99673.84
2022-11-18T11:59:18.355Z,99668.59
2022-11-18T12:01:56.491Z,99664.22
2022-11-18T12:04:36.893Z,99665.44
2022-11-18T12:07:04.884Z,99661.50
2022-11-18T12:09:34.235Z,99662.72
2022-11-18T12:12:35.170Z,99664.72
2022-11-18T12:15:20.166Z,99670.47
2022-11-18T12:18:05.759Z,99667.94
2022-11-18T12:20:53.866Z,99664.78
2022-11-18T12:23:26.406Z,99668.91
2022-11-18T12:26:00.518Z,99671.41
2022-11-18T12:28:36.120Z,99670.78
2022-11-18T12:31:17.675Z,99670.13
2022-11-18T12:33:47.031Z,99672.38
2022-11-18T12:36:26.323Z,99677.75
2022-11-18T12:38:52.966Z,99677.28
2022-11-18T12:41:57.693Z,99671.63
2022-11-18T12:44:25.133Z,99674.06
2022-11-18T12:46:54.225Z,99677.66
2022-11-18T12:49:24.178Z,99684.81
2022-11-18T12:51:51.439Z,99675.78
2022-11-18T12:54:29.860Z,99689.34
2022-11-18T12:57:01.771Z,99688.91
2022-11-18T12:59:29.193Z,99691.75
2022-11-18T13:02:02.794Z,99686.94
2022-11-18T13:04:29.234Z,99692.28
2022-11-18T13:07:00.020Z,99691.91
2022-11-18T13:09:29.288Z,99684.81
2022-11-18T13:12:03.839Z,99685.72
2022-11-18T13:14:52.091Z,99691.75
2022-11-18T13:17:52.118Z,99690.47
2022-11-18T13:20:18.364Z,99697.31
2022-11-18T13:23:13.772Z,99699.81
2022-11-18T13:25:42.397Z,99690.63
2022-11-18T13:28:11.754Z,99697.75
2022-11-18T13:30:44.721Z,99704.69
2022-11-18T13:33:11.689Z,99703.09
2022-11-18T13:35:40.103Z,99708.16
2022-11-18T13:38:21.871Z,99712.53
2022-11-18T13:41:16.248Z,99717.53
2022-11-18T13:43:42.582Z,99709.19
2022-11-18T13:46:16.912Z,99712.97
2022-11-18T13:48:48.168Z,99707.50
2022-11-18T13:51:14.715Z,99704.47
2022-11-18T13:53:41.148Z,99700.47
2022-11-18T13:56:17.499Z,99709.69
2022-11-18T14:01:33.226Z,99717.94
2022-11-18T14:03:59.597Z,99718.59
2022-11-18T14:06:39.429Z,99722.41
2022-11-18T14:09:05.671Z,99726.41
2022-11-18T14:11:36.656Z,99727.16
2022-11-18T14:14:02.994Z,99732.16
2022-11-18T14:16:29.515Z,99735.28
2022-11-18T14:18:55.785Z,99732.19
2022-11-18T14:21:29.059Z,99740.97
2022-11-18T14:23:55.637Z,99740.34
2022-11-18T14:26:33.294Z,99732.84
2022-11-18T14:29:01.078Z,99739.78
2022-11-18T14:31:28.742Z,99741.63
2022-11-18T14:34:04.155Z,99742.69
2022-11-18T14:36:30.930Z,99753.34
2022-11-18T14:39:19.773Z,99747.13
2022-11-18T14:41:49.877Z,99748.56
2022-11-18T14:44:17.190Z,99742.81
2022-11-18T14:46:44.884Z,99742.22
2022-11-18T14:49:17.002Z,99751.63
2022-11-18T14:51:44.023Z,99743.94
2022-11-18T14:54:17.244Z,99757.69
2022-11-18T14:56:47.771Z,99756.91
2022-11-18T14:59:14.648Z,99750.91
2022-11-18T15:01:41.796Z,99761.16
2022-11-18T15:04:08.401Z,99761.16
2022-11-18T15:06:34.827Z,99759.25
2022-11-18T15:09:01.249Z,99756.97
2022-11-18T15:11:27.583Z,99761.38
2022-11-18T15:13:53.836Z,99763.44
2022-11-18T15:16:21.557Z,99761.16
2022-11-18T15:18:49.101Z,99773.28
2022-11-18T15:21:15.968Z,99759.53
2022-11-18T15:23:42.314Z,99769.50
2022-11-18T15:26:17.299Z,99771.78
2022-11-18T15:28:43.689Z,99771.16
2022-11-18T15:31:09.937Z,99775.34
2022-11-18T15:33:36.247Z,99777.41
2022-11-18T15:36:02.488Z,99778.25
2022-11-18T15:38:28.793Z,99789.50
2022-11-18T15:40:55.081Z,99780.97
2022-11-18T15:43:21.372Z,99788.09
2022-11-18T15:45:47.618Z,99781.66
2022-11-18T15:48:13.930Z,99778.97
2022-11-18T15:50:40.237Z,99779.81
2022-11-18T15:53:06.555Z,99786.72
2022-11-18T15:55:33.870Z,99790.44
2022-11-18T15:58:00.171Z,99788.56
2022-11-18T16:00:26.438Z,99802.94
2022-11-18T16:02:52.768Z,99802.56
2022-11-18T16:05:19.096Z,99803.56
2022-11-18T16:07:45.469Z,99804.41
2022-11-18T16:10:30.292Z,99806.31
2022-11-18T16:12:56.682Z,99801.50
2022-11-18T16:15:41.591Z,99805.69
2022-11-18T16:18:07.985Z,99797.16
2022-11-18T16:20:34.275Z,99776.56
2022-11-18T16:23:00.574Z,99804.19
2022-11-18T16:25:28.035Z,99798.59
2022-11-18T16:27:55.085Z,99805.06
2022-11-18T16:30:39.952Z,99803.81
2022-11-18T16:33:06.418Z,99805.06
2022-11-18T16:35:32.810Z,99810.88
2022-11-18T16:37:59.077Z,99808.16
2022-11-18T16:40:25.422Z,99810.28
2022-11-18T16:42:52.160Z,99814.63
2022-11-18T16:45:18.977Z,99814.41
2022-11-18T16:47:45.676Z,99819.59
2022-11-18T16:50:12.306Z,99825.22
2022-11-18T16:52:38.740Z,99826.25
2022-11-18T16:55:05.286Z,99823.34
2022-11-18T16:57:31.527Z,99824.19
2022-11-18T16:59:58.016Z,99826.69
2022-11-18T17:02:24.325Z,99834.59
2022-11-18T17:04:50.706Z,99832.09
2022-11-18T17:07:20.584Z,99841.47
2022-11-18T17:09:47.201Z,99836.28
2022-11-18T17:12:13.516Z,99837.72
2022-11-18T17:14:40.196Z,99837.69
2022-11-18T17:17:06.765Z,99840.00
2022-11-18T17:19:33.037Z,99841.22
2022-11-18T17:21:59.461Z,99842.91
2022-11-18T17:24:26.948Z,99844.38
2022-11-18T17:26:53.522Z,99846.44
2022-11-18T17:29:20.081Z,99848.94
2022-11-18T17:31:46.790Z,99852.47
2022-11-18T17:34:14.164Z,99860.38
2022-11-18T17:36:40.987Z,99852.06
2022-11-18T17:39:09.137Z,99855.38
2022-11-18T17:41:53.917Z,99855.81
2022-11-18T17:44:20.422Z,99864.53
2022-11-18T17:46:47.514Z,99869.53
2022-11-18T17:49:15.212Z,99861.63
2022-11-18T17:51:41.845Z,99866.19
2022-11-18T17:54:08.863Z,99864.53
2022-11-18T17:56:35.642Z,99871.41
2022-11-18T17:59:01.962Z,99876.59
2022-11-18T18:01:28.295Z,99867.63
2022-11-18T18:03:54.643Z,99874.06
2022-11-18T18:06:21.436Z,99875.31
2022-11-18T18:08:47.824Z,99878.25
2022-11-18T18:11:15.900Z,99886.13
2022-11-18T18:14:01.388Z,99884.91
2022-11-18T18:16:28.862Z,99891.13
2022-11-18T18:18:55.238Z,99896.94
2022-11-18T18:21:21.508Z,99898.19
2022-11-18T18:23:47.892Z,99892.78
2022-11-18T18:26:14.545Z,99900.28
2022-11-18T18:28:40.843Z,99895.50
2022-11-18T18:31:09.140Z,99902.34
2022-11-18T18:33:39.874Z,99896.13
2022-11-18T18:36:08.192Z,99902.34
2022-11-18T18:38:35.858Z,99901.34
2022-11-18T18:41:04.446Z,99907.56
2022-11-18T18:43:31.335Z,99910.88
2022-11-18T18:46:19.718Z,99910.47
2022-11-18T18:48:46.110Z,99911.91
2022-11-18T18:51:12.650Z,99923.34
2022-11-18T18:53:38.901Z,99920.44
2022-11-18T18:56:05.301Z,99921.03
2022-11-18T18:58:34.825Z,99924.38
2022-11-18T19:01:08.826Z,99930.81
2022-11-18T19:03:35.692Z,99923.94
2022-11-18T19:06:56.762Z,99921.47
2022-11-18T19:09:02.974Z,99921.06
2022-11-18T19:11:48.045Z,99923.97
2022-11-18T19:14:15.735Z,99924.38
2022-11-18T19:16:45.008Z,99923.97
2022-11-18T19:19:15.185Z,99919.22
2022-11-18T19:21:41.542Z,99921.88
2022-11-18T19:24:34.869Z,99926.66
2022-11-18T19:26:57.590Z,99932.28
2022-11-18T19:29:25.679Z,99916.88
2022-11-18T19:31:52.192Z,99923.53
2022-11-18T19:34:18.599Z,99932.50
2022-11-18T19:36:45.031Z,99933.09
2022-11-18T19:39:11.463Z,99926.88
2022-11-18T19:41:37.838Z,99938.50
2022-11-18T19:44:04.296Z,99939.94
2022-11-18T19:46:31.851Z,99942.25
2022-11-18T19:48:58.574Z,99948.88
2022-11-18T19:51:25.307Z,99944.66
2022-11-18T19:53:55.690Z,99948.41
2022-11-18T19:56:24.877Z,99947.56
2022-11-18T19:58:51.228Z,99955.06
2022-11-18T20:01:18.708Z,99952.16
2022-11-18T20:03:46.219Z,99952.16
2022-11-18T20:06:12.906Z,99959.22
2022-11-18T20:08:40.421Z,99955.47
2022-11-18T20:11:09.552Z,99960.88
2022-11-18T20:13:36.323Z,99962.97
2022-11-18T20:16:03.740Z,99957.56
2022-11-18T20:18:31.062Z,99955.91
2022-11-18T20:21:10.738Z,99949.84
2022-11-18T20:23:37.542Z,99955.47
2022-11-18T20:26:08.784Z,99959.22
2022-11-18T20:28:35.838Z,99957.16
2022-11-18T20:31:03.185Z,99959.66
2022-11-18T20:33:31.994Z,99957.38
2022-11-18T20:36:03.714Z,99954.28
2022-11-18T20:38:30.110Z,99955.72
2022-11-18T20:41:00.130Z,99959.47
2022-11-18T20:43:26.547Z,99957.63
2022-11-18T20:45:54.719Z,99959.66
2022-11-18T20:48:21.370Z,99962.38
2022-11-18T20:50:48.037Z,99969.44
2022-11-18T20:53:14.729Z,99968.41
2022-11-18T20:55:41.183Z,99972.13
2022-11-18T20:58:08.022Z,99972.97
2022-11-18T21:00:34.450Z,99970.91
2022-11-18T21:03:00.728Z,99966.72
2022-11-18T21:05:27.139Z,99969.44
2022-11-18T21:07:53.496Z,99970.28
2022-11-18T21:10:20.735Z,99974.22
2022-11-18T21:13:05.914Z,99975.06
2022-11-18T21:15:32.278Z,99979.19
2022-11-18T21:17:59.016Z,99983.72
2022-11-18T21:20:44.037Z,99981.63
2022-11-18T21:23:11.329Z,99986.63
2022-11-18T21:25:38.205Z,99980.81
2022-11-18T21:28:04.921Z,99990.59
2022-11-18T21:30:31.258Z,99993.28
2022-11-18T21:33:13.016Z,99989.59
2022-11-18T21:35:39.467Z,99988.34
2022-11-18T21:38:24.378Z,99991.28
2022-11-18T21:40:50.806Z,99986.69
2022-11-18T21:43:17.193Z,99997.44
2022-11-18T21:45:43.872Z,99999.31
2022-11-18T21:48:28.980Z,99996.19
2022-11-18T21:51:03.324Z,99997.84
2022-11-18T21:53:30.004Z,99997.63
2022-11-18T21:55:59.687Z,100004.53
2022-11-18T21:58:26.052Z,100002.44
2022-11-18T22:00:52.494Z,100002.22
2022-11-18T22:03:18.849Z,100006.59
2022-11-18T22:05:45.541Z,100001.19
2022-11-18T22:08:12.263Z,100005.34
2022-11-18T22:10:39.483Z,100008.25
2022-11-18T22:13:06.208Z,100008.50
2022-11-18T22:15:32.486Z,100008.69
2022-11-18T22:17:58.806Z,100011.59
2022-11-18T22:20:25.765Z,100013.50
2022-11-18T22:22:52.132Z,100006.59
2022-11-18T22:25:18.550Z,100008.09
2022-11-18T22:27:44.846Z,100000.81
2022-11-18T22:30:25.531Z,100005.00
2022-11-18T22:32:53.790Z,100003.09
2022-11-18T22:35:20.319Z,99997.69
2022-11-18T22:37:46.595Z,100007.03
2022-11-18T22:40:15.865Z,100000.41
2022-11-18T22:42:48.256Z,100012.25
2022-11-18T22:45:15.322Z,100005.38
2022-11-18T22:47:41.917Z,100021.34
2022-11-18T22:50:08.598Z,100017.59
2022-11-18T22:52:34.958Z,100010.53
2022-11-18T22:55:01.268Z,100010.34
2022-11-18T22:57:32.632Z,100009.03
2022-11-18T22:59:59.011Z,100006.97
2022-11-18T23:02:25.350Z,100006.34
2022-11-18T23:04:51.680Z,100008.03
2022-11-18T23:07:18.072Z,100003.25
2022-11-18T23:09:44.483Z,100010.94
2022-11-18T23:12:29.694Z,100018.03
2022-11-18T23:14:56.056Z,100015.75
2022-11-18T23:17:23.480Z,100022.81
2022-11-18T23:19:50.398Z,100021.34
2022-11-18T23:22:17.654Z,100017.59
2022-11-18T23:24:44.050Z,100024.06
2022-11-18T23:27:10.734Z,100025.09
2022-11-18T23:29:37.629Z,100022.41
2022-11-18T23:32:04.410Z,100022.19
2022-11-18T23:34:30.757Z,100019.91
2022-11-18T23:36:57.073Z,100018.91
2022-11-18T23:39:23.358Z,100017.84
2022-11-18T23:41:49.679Z,100026.59
2022-11-18T23:44:16.036Z,100021.81
2022-11-18T23:46:42.343Z,100030.72
2022-11-18T23:49:09.308Z,100023.66
2022-11-18T23:51:35.601Z,100028.66
2022-11-18T23:54:01.929Z,100028.22
2022-11-18T23:56:28.273Z,100027.78
2022-11-18T23:58:55.922Z,100024.84
